sensor_id;sensor_type;location;lat;lon;timestamp;P1;durP1;ratioP1;P2;durP2;ratioP2
10230;SDS011;62604;49.432;8.680;2024-02-16T00:00:47;3.08;;;2.15;;
10230;SDS011;62604;49.432;8.680;2024-02-16T00:03:14;3.00;;;2.28;;
10230;SDS011;62604;49.432;8.680;2024-02-16T00:05:43;2.47;;;2.20;;
10230;SDS011;62604;49.432;8.680;2024-02-16T00:08:10;3.10;;;2.35;;
10230;SDS011;62604;49.432;8.680;2024-02-16T00:10:41;2.90;;;2.25;;
10230;SDS011;62604;49.432;8.680;2024-02-16T00:13:15;3.22;;;2.45;;
10230;SDS011;62604;49.432;8.680;2024-02-16T00:15:45;3.33;;;2.22;;
10230;SDS011;62604;49.432;8.680;2024-02-16T00:18:15;2.20;;;2.10;;
10230;SDS011;62604;49.432;8.680;2024-02-16T00:20:43;1.90;;;1.80;;
10230;SDS011;62604;49.432;8.680;2024-02-16T00:23:14;2.92;;;2.13;;
10230;SDS011;62604;49.432;8.680;2024-02-16T00:25:48;3.72;;;2.15;;
10230;SDS011;62604;49.432;8.680;2024-02-16T00:28:17;3.70;;;2.67;;
10230;SDS011;62604;49.432;8.680;2024-02-16T00:30:45;2.78;;;2.33;;
10230;SDS011;62604;49.432;8.680;2024-02-16T00:33:17;3.10;;;2.72;;
10230;SDS011;62604;49.432;8.680;2024-02-16T00:35:45;3.83;;;2.70;;
10230;SDS011;62604;49.432;8.680;2024-02-16T00:38:16;3.10;;;2.45;;
10230;SDS011;62604;49.432;8.680;2024-02-16T00:40:44;3.47;;;2.20;;
10230;SDS011;62604;49.432;8.680;2024-02-16T00:43:15;3.47;;;2.35;;
10230;SDS011;62604;49.432;8.680;2024-02-16T00:45:44;3.13;;;1.90;;
10230;SDS011;62604;49.432;8.680;2024-02-16T00:48:13;3.17;;;2.10;;
10230;SDS011;62604;49.432;8.680;2024-02-16T00:50:40;3.03;;;2.17;;
10230;SDS011;62604;49.432;8.680;2024-02-16T00:53:08;5.50;;;2.13;;
10230;SDS011;62604;49.432;8.680;2024-02-16T00:55:39;2.30;;;1.88;;
10230;SDS011;62604;49.432;8.680;2024-02-16T00:58:10;2.40;;;2.20;;
10230;SDS011;62604;49.432;8.680;2024-02-16T01:00:37;2.22;;;2.00;;
10230;SDS011;62604;49.432;8.680;2024-02-16T01:03:09;2.45;;;2.00;;
10230;SDS011;62604;49.432;8.680;2024-02-16T01:05:40;2.00;;;1.90;;
10230;SDS011;62604;49.432;8.680;2024-02-16T01:08:07;3.30;;;2.10;;
10230;SDS011;62604;49.432;8.680;2024-02-16T01:10:37;2.08;;;1.90;;
10230;SDS011;62604;49.432;8.680;2024-02-16T01:13:08;1.95;;;1.83;;
10230;SDS011;62604;49.432;8.680;2024-02-16T01:15:37;2.50;;;1.93;;
10230;SDS011;62604;49.432;8.680;2024-02-16T01:18:10;2.13;;;1.92;;
10230;SDS011;62604;49.432;8.680;2024-02-16T01:20:44;2.97;;;2.22;;
10230;SDS011;62604;49.432;8.680;2024-02-16T01:23:13;3.15;;;2.58;;
10230;SDS011;62604;49.432;8.680;2024-02-16T01:25:41;2.60;;;2.40;;
10230;SDS011;62604;49.432;8.680;2024-02-16T01:28:09;6.13;;;2.35;;
10230;SDS011;62604;49.432;8.680;2024-02-16T01:30:45;4.17;;;1.90;;
10230;SDS011;62604;49.432;8.680;2024-02-16T01:33:12;3.25;;;2.42;;
10230;SDS011;62604;49.432;8.680;2024-02-16T01:35:39;3.15;;;2.13;;
10230;SDS011;62604;49.432;8.680;2024-02-16T01:38:08;3.30;;;2.28;;
10230;SDS011;62604;49.432;8.680;2024-02-16T01:40:35;3.37;;;3.07;;
10230;SDS011;62604;49.432;8.680;2024-02-16T01:43:01;3.30;;;2.67;;
10230;SDS011;62604;49.432;8.680;2024-02-16T01:45:29;4.15;;;2.58;;
10230;SDS011;62604;49.432;8.680;2024-02-16T01:47:56;2.77;;;2.20;;
10230;SDS011;62604;49.432;8.680;2024-02-16T01:50:24;2.50;;;2.20;;
10230;SDS011;62604;49.432;8.680;2024-02-16T01:52:55;3.20;;;2.83;;
10230;SDS011;62604;49.432;8.680;2024-02-16T01:55:22;3.10;;;2.80;;
10230;SDS011;62604;49.432;8.680;2024-02-16T01:57:51;6.00;;;2.90;;
10230;SDS011;62604;49.432;8.680;2024-02-16T02:00:18;4.30;;;2.38;;
10230;SDS011;62604;49.432;8.680;2024-02-16T02:02:45;3.90;;;2.83;;
10230;SDS011;62604;49.432;8.680;2024-02-16T02:05:13;2.60;;;2.10;;
10230;SDS011;62604;49.432;8.680;2024-02-16T02:07:40;2.40;;;2.20;;
10230;SDS011;62604;49.432;8.680;2024-02-16T02:10:10;3.73;;;2.47;;
10230;SDS011;62604;49.432;8.680;2024-02-16T02:12:38;3.00;;;2.03;;
10230;SDS011;62604;49.432;8.680;2024-02-16T02:15:06;2.20;;;2.07;;
10230;SDS011;62604;49.432;8.680;2024-02-16T02:17:33;2.53;;;1.90;;
10230;SDS011;62604;49.432;8.680;2024-02-16T02:20:01;2.08;;;1.98;;
10230;SDS011;62604;49.432;8.680;2024-02-16T02:22:30;3.97;;;1.90;;
10230;SDS011;62604;49.432;8.680;2024-02-16T02:24:58;2.77;;;2.07;;
10230;SDS011;62604;49.432;8.680;2024-02-16T02:27:25;3.20;;;2.10;;
10230;SDS011;62604;49.432;8.680;2024-02-16T02:29:52;2.37;;;2.00;;
10230;SDS011;62604;49.432;8.680;2024-02-16T02:32:19;2.43;;;2.17;;
10230;SDS011;62604;49.432;8.680;2024-02-16T02:34:46;3.03;;;2.43;;
10230;SDS011;62604;49.432;8.680;2024-02-16T02:37:12;2.97;;;2.28;;
10230;SDS011;62604;49.432;8.680;2024-02-16T02:39:41;2.83;;;2.20;;
10230;SDS011;62604;49.432;8.680;2024-02-16T02:42:09;3.57;;;2.27;;
10230;SDS011;62604;49.432;8.680;2024-02-16T02:44:36;3.22;;;2.22;;
10230;SDS011;62604;49.432;8.680;2024-02-16T02:47:03;2.30;;;2.10;;
10230;SDS011;62604;49.432;8.680;2024-02-16T02:49:30;4.05;;;1.90;;
10230;SDS011;62604;49.432;8.680;2024-02-16T02:51:58;2.25;;;2.05;;
10230;SDS011;62604;49.432;8.680;2024-02-16T02:54:25;2.33;;;1.98;;
10230;SDS011;62604;49.432;8.680;2024-02-16T02:56:53;2.05;;;1.88;;
10230;SDS011;62604;49.432;8.680;2024-02-16T02:59:20;3.20;;;2.00;;
10230;SDS011;62604;49.432;8.680;2024-02-16T03:01:47;3.10;;;2.30;;
10230;SDS011;62604;49.432;8.680;2024-02-16T03:04:14;2.97;;;2.00;;
10230;SDS011;62604;49.432;8.680;2024-02-16T03:06:41;3.20;;;2.60;;
10230;SDS011;62604;49.432;8.680;2024-02-16T03:09:08;2.55;;;2.35;;
10230;SDS011;62604;49.432;8.680;2024-02-16T03:11:38;3.23;;;2.20;;
10230;SDS011;62604;49.432;8.680;2024-02-16T03:14:07;3.37;;;2.20;;
10230;SDS011;62604;49.432;8.680;2024-02-16T03:16:38;2.67;;;2.20;;
10230;SDS011;62604;49.432;8.680;2024-02-16T03:19:06;6.50;;;2.60;;
10230;SDS011;62604;49.432;8.680;2024-02-16T03:21:36;2.67;;;2.35;;
10230;SDS011;62604;49.432;8.680;2024-02-16T03:24:03;2.53;;;2.10;;
10230;SDS011;62604;49.432;8.680;2024-02-16T03:26:40;2.40;;;2.20;;
10230;SDS011;62604;49.432;8.680;2024-02-16T03:29:13;3.80;;;2.33;;
10230;SDS011;62604;49.432;8.680;2024-02-16T03:31:41;2.47;;;2.23;;
10230;SDS011;62604;49.432;8.680;2024-02-16T03:34:10;2.30;;;2.10;;
10230;SDS011;62604;49.432;8.680;2024-02-16T03:36:38;3.47;;;2.70;;
10230;SDS011;62604;49.432;8.680;2024-02-16T03:39:05;2.07;;;1.87;;
10230;SDS011;62604;49.432;8.680;2024-02-16T03:41:33;4.60;;;2.27;;
10230;SDS011;62604;49.432;8.680;2024-02-16T03:44:02;9.97;;;4.10;;
10230;SDS011;62604;49.432;8.680;2024-02-16T03:46:36;4.27;;;2.90;;
10230;SDS011;62604;49.432;8.680;2024-02-16T03:49:03;5.47;;;2.83;;
10230;SDS011;62604;49.432;8.680;2024-02-16T03:51:30;2.70;;;2.50;;
10230;SDS011;62604;49.432;8.680;2024-02-16T03:53:56;3.57;;;2.20;;
10230;SDS011;62604;49.432;8.680;2024-02-16T03:56:24;6.13;;;2.70;;
10230;SDS011;62604;49.432;8.680;2024-02-16T03:58:51;3.17;;;2.30;;
10230;SDS011;62604;49.432;8.680;2024-02-16T04:01:18;3.20;;;2.17;;
10230;SDS011;62604;49.432;8.680;2024-02-16T04:03:46;2.80;;;2.37;;
10230;SDS011;62604;49.432;8.680;2024-02-16T04:06:13;2.42;;;2.22;;
10230;SDS011;62604;49.432;8.680;2024-02-16T04:08:40;2.23;;;2.03;;
10230;SDS011;62604;49.432;8.680;2024-02-16T04:11:07;2.27;;;2.07;;
10230;SDS011;62604;49.432;8.680;2024-02-16T04:13:34;2.30;;;2.10;;
10230;SDS011;62604;49.432;8.680;2024-02-16T04:16:00;3.67;;;2.60;;
10230;SDS011;62604;49.432;8.680;2024-02-16T04:18:27;2.25;;;2.05;;
10230;SDS011;62604;49.432;8.680;2024-02-16T04:20:56;3.15;;;2.40;;
10230;SDS011;62604;49.432;8.680;2024-02-16T04:23:23;3.90;;;2.23;;
10230;SDS011;62604;49.432;8.680;2024-02-16T04:25:50;3.20;;;2.40;;
10230;SDS011;62604;49.432;8.680;2024-02-16T04:28:18;5.03;;;1.93;;
10230;SDS011;62604;49.432;8.680;2024-02-16T04:30:45;2.57;;;2.23;;
10230;SDS011;62604;49.432;8.680;2024-02-16T04:33:12;3.00;;;2.30;;
10230;SDS011;62604;49.432;8.680;2024-02-16T04:35:39;2.23;;;2.03;;
10230;SDS011;62604;49.432;8.680;2024-02-16T04:38:07;2.30;;;2.10;;
10230;SDS011;62604;49.432;8.680;2024-02-16T04:40:35;2.60;;;2.30;;
10230;SDS011;62604;49.432;8.680;2024-02-16T04:43:04;2.87;;;2.33;;
10230;SDS011;62604;49.432;8.680;2024-02-16T04:45:35;2.00;;;1.90;;
10230;SDS011;62604;49.432;8.680;2024-02-16T04:48:02;2.50;;;2.30;;
10230;SDS011;62604;49.432;8.680;2024-02-16T04:50:30;4.20;;;1.73;;
10230;SDS011;62604;49.432;8.680;2024-02-16T04:52:58;3.43;;;2.27;;
10230;SDS011;62604;49.432;8.680;2024-02-16T04:55:27;2.37;;;2.17;;
10230;SDS011;62604;49.432;8.680;2024-02-16T04:57:56;3.10;;;2.20;;
10230;SDS011;62604;49.432;8.680;2024-02-16T05:00:27;3.67;;;2.40;;
10230;SDS011;62604;49.432;8.680;2024-02-16T05:02:54;2.60;;;2.40;;
10230;SDS011;62604;49.432;8.680;2024-02-16T05:05:21;4.37;;;2.40;;
10230;SDS011;62604;49.432;8.680;2024-02-16T05:07:51;4.37;;;2.10;;
10230;SDS011;62604;49.432;8.680;2024-02-16T05:10:21;3.33;;;2.80;;
10230;SDS011;62604;49.432;8.680;2024-02-16T05:12:49;2.47;;;2.27;;
10230;SDS011;62604;49.432;8.680;2024-02-16T05:15:19;3.70;;;2.70;;
10230;SDS011;62604;49.432;8.680;2024-02-16T05:17:47;2.90;;;2.60;;
10230;SDS011;62604;49.432;8.680;2024-02-16T05:20:14;3.93;;;2.90;;
10230;SDS011;62604;49.432;8.680;2024-02-16T05:22:42;4.17;;;2.47;;
10230;SDS011;62604;49.432;8.680;2024-02-16T05:25:10;3.50;;;2.90;;
10230;SDS011;62604;49.432;8.680;2024-02-16T05:27:39;2.77;;;2.57;;
10230;SDS011;62604;49.432;8.680;2024-02-16T05:30:08;2.93;;;2.40;;
10230;SDS011;62604;49.432;8.680;2024-02-16T05:32:39;2.40;;;2.20;;
10230;SDS011;62604;49.432;8.680;2024-02-16T05:35:08;3.93;;;3.07;;
10230;SDS011;62604;49.432;8.680;2024-02-16T05:37:42;3.70;;;2.93;;
10230;SDS011;62604;49.432;8.680;2024-02-16T05:40:10;2.93;;;2.63;;
10230;SDS011;62604;49.432;8.680;2024-02-16T05:42:47;3.83;;;2.70;;
10230;SDS011;62604;49.432;8.680;2024-02-16T05:45:16;4.17;;;3.10;;
10230;SDS011;62604;49.432;8.680;2024-02-16T05:47:44;3.13;;;2.83;;
10230;SDS011;62604;49.432;8.680;2024-02-16T05:50:12;2.90;;;2.60;;
10230;SDS011;62604;49.432;8.680;2024-02-16T05:52:39;2.90;;;2.47;;
10230;SDS011;62604;49.432;8.680;2024-02-16T05:55:06;3.07;;;2.40;;
10230;SDS011;62604;49.432;8.680;2024-02-16T05:57:34;2.63;;;2.30;;
10230;SDS011;62604;49.432;8.680;2024-02-16T06:00:01;2.90;;;2.60;;
10230;SDS011;62604;49.432;8.680;2024-02-16T06:02:31;4.27;;;2.40;;
10230;SDS011;62604;49.432;8.680;2024-02-16T06:04:58;2.83;;;2.30;;
10230;SDS011;62604;49.432;8.680;2024-02-16T06:07:26;3.17;;;2.40;;
10230;SDS011;62604;49.432;8.680;2024-02-16T06:09:54;2.50;;;2.30;;
10230;SDS011;62604;49.432;8.680;2024-02-16T06:12:22;7.30;;;2.87;;
10230;SDS011;62604;49.432;8.680;2024-02-16T06:14:51;2.67;;;2.47;;
10230;SDS011;62604;49.432;8.680;2024-02-16T06:17:23;2.73;;;2.47;;
10230;SDS011;62604;49.432;8.680;2024-02-16T06:19:53;2.93;;;2.50;;
10230;SDS011;62604;49.432;8.680;2024-02-16T06:22:20;3.30;;;2.47;;
10230;SDS011;62604;49.432;8.680;2024-02-16T06:24:47;3.27;;;2.63;;
10230;SDS011;62604;49.432;8.680;2024-02-16T06:27:14;3.53;;;2.90;;
10230;SDS011;62604;49.432;8.680;2024-02-16T06:29:41;3.60;;;2.60;;
10230;SDS011;62604;49.432;8.680;2024-02-16T06:32:08;3.77;;;3.00;;
10230;SDS011;62604;49.432;8.680;2024-02-16T06:34:36;3.37;;;3.00;;
10230;SDS011;62604;49.432;8.680;2024-02-16T06:37:04;3.50;;;2.70;;
10230;SDS011;62604;49.432;8.680;2024-02-16T06:39:31;3.70;;;3.00;;
10230;SDS011;62604;49.432;8.680;2024-02-16T06:41:58;3.03;;;2.80;;
10230;SDS011;62604;49.432;8.680;2024-02-16T06:44:25;5.90;;;3.40;;
10230;SDS011;62604;49.432;8.680;2024-02-16T06:46:52;3.53;;;3.10;;
10230;SDS011;62604;49.432;8.680;2024-02-16T06:49:19;4.87;;;3.20;;
10230;SDS011;62604;49.432;8.680;2024-02-16T06:51:46;5.57;;;3.00;;
10230;SDS011;62604;49.432;8.680;2024-02-16T06:54:15;4.33;;;2.93;;
10230;SDS011;62604;49.432;8.680;2024-02-16T06:56:42;3.80;;;3.20;;
10230;SDS011;62604;49.432;8.680;2024-02-16T06:59:09;3.53;;;3.20;;
10230;SDS011;62604;49.432;8.680;2024-02-16T07:01:36;3.13;;;2.83;;
10230;SDS011;62604;49.432;8.680;2024-02-16T07:04:03;3.25;;;2.92;;
10230;SDS011;62604;49.432;8.680;2024-02-16T07:06:30;6.55;;;3.47;;
10230;SDS011;62604;49.432;8.680;2024-02-16T07:08:57;4.75;;;3.17;;
10230;SDS011;62604;49.432;8.680;2024-02-16T07:11:26;4.00;;;2.70;;
10230;SDS011;62604;49.432;8.680;2024-02-16T07:13:53;3.50;;;3.20;;
10230;SDS011;62604;49.432;8.680;2024-02-16T07:16:20;5.27;;;3.53;;
10230;SDS011;62604;49.432;8.680;2024-02-16T07:18:47;3.40;;;3.10;;
10230;SDS011;62604;49.432;8.680;2024-02-16T07:21:14;3.53;;;2.80;;
10230;SDS011;62604;49.432;8.680;2024-02-16T07:23:41;4.33;;;3.17;;
10230;SDS011;62604;49.432;8.680;2024-02-16T07:26:08;5.83;;;3.00;;
10230;SDS011;62604;49.432;8.680;2024-02-16T07:28:36;6.45;;;3.35;;
10230;SDS011;62604;49.432;8.680;2024-02-16T07:31:03;4.57;;;3.17;;
10230;SDS011;62604;49.432;8.680;2024-02-16T07:33:30;4.27;;;3.50;;
10230;SDS011;62604;49.432;8.680;2024-02-16T07:36:00;5.70;;;3.30;;
10230;SDS011;62604;49.432;8.680;2024-02-16T07:38:27;8.13;;;3.35;;
10230;SDS011;62604;49.432;8.680;2024-02-16T07:40:54;5.97;;;2.80;;
10230;SDS011;62604;49.432;8.680;2024-02-16T07:43:21;7.25;;;3.08;;
10230;SDS011;62604;49.432;8.680;2024-02-16T07:45:50;4.13;;;2.92;;
10230;SDS011;62604;49.432;8.680;2024-02-16T07:48:19;5.28;;;2.88;;
10230;SDS011;62604;49.432;8.680;2024-02-16T07:50:46;3.67;;;2.72;;
10230;SDS011;62604;49.432;8.680;2024-02-16T07:53:13;3.55;;;2.85;;
10230;SDS011;62604;49.432;8.680;2024-02-16T07:55:40;3.13;;;2.85;;
10230;SDS011;62604;49.432;8.680;2024-02-16T07:58:07;3.33;;;3.03;;
10230;SDS011;62604;49.432;8.680;2024-02-16T08:00:35;3.60;;;3.00;;
10230;SDS011;62604;49.432;8.680;2024-02-16T08:03:03;3.53;;;3.00;;
10230;SDS011;62604;49.432;8.680;2024-02-16T08:05:30;3.40;;;2.95;;
10230;SDS011;62604;49.432;8.680;2024-02-16T08:07:59;3.80;;;2.75;;
10230;SDS011;62604;49.432;8.680;2024-02-16T08:10:26;4.93;;;3.28;;
10230;SDS011;62604;49.432;8.680;2024-02-16T08:12:53;4.22;;;3.45;;
10230;SDS011;62604;49.432;8.680;2024-02-16T08:15:20;4.82;;;3.40;;
10230;SDS011;62604;49.432;8.680;2024-02-16T08:17:50;4.28;;;3.28;;
10230;SDS011;62604;49.432;8.680;2024-02-16T08:20:21;3.10;;;2.90;;
10230;SDS011;62604;49.432;8.680;2024-02-16T08:22:49;3.20;;;2.88;;
10230;SDS011;62604;49.432;8.680;2024-02-16T08:25:17;3.78;;;3.20;;
10230;SDS011;62604;49.432;8.680;2024-02-16T08:27:45;4.30;;;3.35;;
10230;SDS011;62604;49.432;8.680;2024-02-16T08:30:14;3.35;;;3.05;;
10230;SDS011;62604;49.432;8.680;2024-02-16T08:32:41;3.70;;;3.17;;
10230;SDS011;62604;49.432;8.680;2024-02-16T08:35:08;2.90;;;2.70;;
10230;SDS011;62604;49.432;8.680;2024-02-16T08:37:46;4.22;;;3.42;;
10230;SDS011;62604;49.432;8.680;2024-02-16T08:40:13;3.58;;;3.28;;
10230;SDS011;62604;49.432;8.680;2024-02-16T08:42:40;5.00;;;3.00;;
10230;SDS011;62604;49.432;8.680;2024-02-16T08:45:07;3.63;;;3.22;;
10230;SDS011;62604;49.432;8.680;2024-02-16T08:47:35;3.47;;;3.17;;
10230;SDS011;62604;49.432;8.680;2024-02-16T08:50:05;3.35;;;2.90;;
10230;SDS011;62604;49.432;8.680;2024-02-16T08:52:32;7.50;;;3.40;;
10230;SDS011;62604;49.432;8.680;2024-02-16T08:55:03;4.55;;;3.20;;
10230;SDS011;62604;49.432;8.680;2024-02-16T08:57:41;5.28;;;3.53;;
10230;SDS011;62604;49.432;8.680;2024-02-16T09:00:13;5.32;;;3.70;;
10230;SDS011;62604;49.432;8.680;2024-02-16T09:02:42;7.00;;;3.30;;
10230;SDS011;62604;49.432;8.680;2024-02-16T09:05:13;4.72;;;3.40;;
10230;SDS011;62604;49.432;8.680;2024-02-16T09:07:40;3.60;;;3.30;;
10230;SDS011;62604;49.432;8.680;2024-02-16T09:10:09;7.07;;;3.22;;
10230;SDS011;62604;49.432;8.680;2024-02-16T09:12:37;5.95;;;3.42;;
10230;SDS011;62604;49.432;8.680;2024-02-16T09:15:04;4.57;;;3.50;;
10230;SDS011;62604;49.432;8.680;2024-02-16T09:17:32;3.78;;;3.42;;
10230;SDS011;62604;49.432;8.680;2024-02-16T09:19:59;5.30;;;3.38;;
10230;SDS011;62604;49.432;8.680;2024-02-16T09:22:26;4.95;;;3.72;;
10230;SDS011;62604;49.432;8.680;2024-02-16T09:24:53;7.95;;;3.42;;
10230;SDS011;62604;49.432;8.680;2024-02-16T09:27:22;3.53;;;3.20;;
10230;SDS011;62604;49.432;8.680;2024-02-16T09:29:49;5.80;;;3.60;;
10230;SDS011;62604;49.432;8.680;2024-02-16T09:32:17;3.40;;;3.10;;
10230;SDS011;62604;49.432;8.680;2024-02-16T09:34:44;4.93;;;3.20;;
10230;SDS011;62604;49.432;8.680;2024-02-16T09:37:11;3.90;;;3.50;;
10230;SDS011;62604;49.432;8.680;2024-02-16T09:39:38;4.88;;;3.30;;
10230;SDS011;62604;49.432;8.680;2024-02-16T09:42:06;6.55;;;3.17;;
10230;SDS011;62604;49.432;8.680;2024-02-16T09:44:34;4.28;;;3.20;;
10230;SDS011;62604;49.432;8.680;2024-02-16T09:47:02;3.25;;;2.95;;
10230;SDS011;62604;49.432;8.680;2024-02-16T09:49:32;3.45;;;3.15;;
10230;SDS011;62604;49.432;8.680;2024-02-16T09:51:59;3.38;;;3.08;;
10230;SDS011;62604;49.432;8.680;2024-02-16T09:54:29;3.80;;;3.40;;
10230;SDS011;62604;49.432;8.680;2024-02-16T09:56:59;4.47;;;3.00;;
10230;SDS011;62604;49.432;8.680;2024-02-16T09:59:26;6.05;;;3.15;;
10230;SDS011;62604;49.432;8.680;2024-02-16T10:02:00;3.97;;;3.28;;
10230;SDS011;62604;49.432;8.680;2024-02-16T10:04:27;6.22;;;3.25;;
10230;SDS011;62604;49.432;8.680;2024-02-16T10:06:54;7.43;;;3.53;;
10230;SDS011;62604;49.432;8.680;2024-02-16T10:09:22;4.50;;;3.55;;
10230;SDS011;62604;49.432;8.680;2024-02-16T10:11:50;6.88;;;3.40;;
10230;SDS011;62604;49.432;8.680;2024-02-16T10:14:17;5.60;;;3.42;;
10230;SDS011;62604;49.432;8.680;2024-02-16T10:16:45;5.53;;;3.72;;
10230;SDS011;62604;49.432;8.680;2024-02-16T10:19:17;3.67;;;3.20;;
10230;SDS011;62604;49.432;8.680;2024-02-16T10:21:44;3.90;;;3.45;;
10230;SDS011;62604;49.432;8.680;2024-02-16T10:24:11;8.65;;;3.83;;
10230;SDS011;62604;49.432;8.680;2024-02-16T10:26:40;4.25;;;3.00;;
10230;SDS011;62604;49.432;8.680;2024-02-16T10:29:08;3.90;;;3.13;;
10230;SDS011;62604;49.432;8.680;2024-02-16T10:31:36;6.22;;;3.50;;
10230;SDS011;62604;49.432;8.680;2024-02-16T10:34:03;6.35;;;3.80;;
10230;SDS011;62604;49.432;8.680;2024-02-16T10:36:33;5.28;;;3.45;;
10230;SDS011;62604;49.432;8.680;2024-02-16T10:39:01;7.97;;;3.83;;
10230;SDS011;62604;49.432;8.680;2024-02-16T10:41:32;3.75;;;3.40;;
10230;SDS011;62604;49.432;8.680;2024-02-16T10:44:00;4.82;;;3.47;;
10230;SDS011;62604;49.432;8.680;2024-02-16T10:46:28;3.60;;;3.30;;
10230;SDS011;62604;49.432;8.680;2024-02-16T10:48:55;3.70;;;3.40;;
10230;SDS011;62604;49.432;8.680;2024-02-16T10:51:23;4.18;;;3.20;;
10230;SDS011;62604;49.432;8.680;2024-02-16T10:54:01;6.07;;;3.78;;
10230;SDS011;62604;49.432;8.680;2024-02-16T10:56:32;3.88;;;2.97;;
10230;SDS011;62604;49.432;8.680;2024-02-16T10:59:01;3.85;;;3.20;;
10230;SDS011;62604;49.432;8.680;2024-02-16T11:01:31;4.00;;;3.00;;
10230;SDS011;62604;49.432;8.680;2024-02-16T11:04:00;3.47;;;2.95;;
10230;SDS011;62604;49.432;8.680;2024-02-16T11:06:29;7.07;;;3.33;;
10230;SDS011;62604;49.432;8.680;2024-02-16T11:09:02;4.13;;;3.35;;
10230;SDS011;62604;49.432;8.680;2024-02-16T11:11:36;4.20;;;3.42;;
10230;SDS011;62604;49.432;8.680;2024-02-16T11:14:03;3.10;;;2.90;;
10230;SDS011;62604;49.432;8.680;2024-02-16T11:16:43;3.60;;;3.28;;
10230;SDS011;62604;49.432;8.680;2024-02-16T11:19:11;4.72;;;3.38;;
10230;SDS011;62604;49.432;8.680;2024-02-16T11:21:54;4.13;;;3.45;;
10230;SDS011;62604;49.432;8.680;2024-02-16T11:24:29;3.42;;;3.13;;
10230;SDS011;62604;49.432;8.680;2024-02-16T11:26:57;3.38;;;3.08;;
10230;SDS011;62604;49.432;8.680;2024-02-16T11:29:26;3.67;;;3.35;;
10230;SDS011;62604;49.432;8.680;2024-02-16T11:31:55;3.40;;;3.10;;
10230;SDS011;62604;49.432;8.680;2024-02-16T11:34:24;3.80;;;3.13;;
10230;SDS011;62604;49.432;8.680;2024-02-16T11:36:52;2.60;;;2.40;;
10230;SDS011;62604;49.432;8.680;2024-02-16T11:39:19;5.13;;;3.10;;
10230;SDS011;62604;49.432;8.680;2024-02-16T11:41:48;3.58;;;2.78;;
10230;SDS011;62604;49.432;8.680;2024-02-16T11:44:26;5.03;;;3.13;;
10230;SDS011;62604;49.432;8.680;2024-02-16T11:46:54;3.50;;;2.90;;
10230;SDS011;62604;49.432;8.680;2024-02-16T11:49:21;3.55;;;2.90;;
10230;SDS011;62604;49.432;8.680;2024-02-16T11:51:48;3.53;;;3.20;;
10230;SDS011;62604;49.432;8.680;2024-02-16T11:54:15;3.75;;;3.05;;
10230;SDS011;62604;49.432;8.680;2024-02-16T11:56:42;5.07;;;3.03;;
10230;SDS011;62604;49.432;8.680;2024-02-16T11:59:13;3.63;;;2.92;;
10230;SDS011;62604;49.432;8.680;2024-02-16T12:01:51;3.17;;;2.42;;
10230;SDS011;62604;49.432;8.680;2024-02-16T12:04:22;4.57;;;2.80;;
10230;SDS011;62604;49.432;8.680;2024-02-16T12:06:51;3.88;;;2.67;;
10230;SDS011;62604;49.432;8.680;2024-02-16T12:09:19;3.70;;;3.03;;
10230;SDS011;62604;49.432;8.680;2024-02-16T12:11:47;4.40;;;2.95;;
10230;SDS011;62604;49.432;8.680;2024-02-16T12:14:16;2.90;;;2.70;;
10230;SDS011;62604;49.432;8.680;2024-02-16T12:16:46;3.05;;;2.75;;
10230;SDS011;62604;49.432;8.680;2024-02-16T12:19:14;3.47;;;3.17;;
10230;SDS011;62604;49.432;8.680;2024-02-16T12:21:48;2.78;;;2.58;;
10230;SDS011;62604;49.432;8.680;2024-02-16T12:24:16;4.25;;;3.00;;
10230;SDS011;62604;49.432;8.680;2024-02-16T12:26:43;3.30;;;2.97;;
10230;SDS011;62604;49.432;8.680;2024-02-16T12:29:10;2.97;;;2.70;;
10230;SDS011;62604;49.432;8.680;2024-02-16T12:31:39;6.25;;;2.92;;
10230;SDS011;62604;49.432;8.680;2024-02-16T12:34:07;4.40;;;2.50;;
10230;SDS011;62604;49.432;8.680;2024-02-16T12:36:34;6.32;;;2.92;;
10230;SDS011;62604;49.432;8.680;2024-02-16T12:39:01;6.32;;;3.08;;
10230;SDS011;62604;49.432;8.680;2024-02-16T12:41:31;6.43;;;2.83;;
10230;SDS011;62604;49.432;8.680;2024-02-16T12:43:58;4.03;;;2.83;;
10230;SDS011;62604;49.432;8.680;2024-02-16T12:46:26;3.30;;;2.83;;
10230;SDS011;62604;49.432;8.680;2024-02-16T12:48:56;6.00;;;3.10;;
10230;SDS011;62604;49.432;8.680;2024-02-16T12:51:23;4.85;;;3.00;;
10230;SDS011;62604;49.432;8.680;2024-02-16T12:53:49;3.00;;;2.40;;
10230;SDS011;62604;49.432;8.680;2024-02-16T12:56:17;5.60;;;2.80;;
10230;SDS011;62604;49.432;8.680;2024-02-16T12:58:46;3.55;;;2.80;;
10230;SDS011;62604;49.432;8.680;2024-02-16T13:01:13;3.15;;;2.75;;
10230;SDS011;62604;49.432;8.680;2024-02-16T13:03:43;3.35;;;2.80;;
10230;SDS011;62604;49.432;8.680;2024-02-16T13:06:11;4.95;;;3.10;;
10230;SDS011;62604;49.432;8.680;2024-02-16T13:08:38;3.55;;;2.60;;
10230;SDS011;62604;49.432;8.680;2024-02-16T13:11:05;3.90;;;2.80;;
10230;SDS011;62604;49.432;8.680;2024-02-16T13:13:34;3.83;;;3.10;;
10230;SDS011;62604;49.432;8.680;2024-02-16T13:16:02;3.20;;;2.90;;
10230;SDS011;62604;49.432;8.680;2024-02-16T13:18:31;2.70;;;2.50;;
10230;SDS011;62604;49.432;8.680;2024-02-16T13:21:01;3.03;;;2.65;;
10230;SDS011;62604;49.432;8.680;2024-02-16T13:23:31;3.30;;;2.58;;
10230;SDS011;62604;49.432;8.680;2024-02-16T13:25:58;4.25;;;2.53;;
10230;SDS011;62604;49.432;8.680;2024-02-16T13:28:25;3.10;;;2.60;;
10230;SDS011;62604;49.432;8.680;2024-02-16T13:30:52;3.42;;;2.53;;
10230;SDS011;62604;49.432;8.680;2024-02-16T13:33:21;2.85;;;2.60;;
10230;SDS011;62604;49.432;8.680;2024-02-16T13:35:49;3.08;;;2.10;;
10230;SDS011;62604;49.432;8.680;2024-02-16T13:38:25;3.78;;;2.30;;
10230;SDS011;62604;49.432;8.680;2024-02-16T13:40:55;3.42;;;2.30;;
10230;SDS011;62604;49.432;8.680;2024-02-16T13:43:22;6.07;;;2.70;;
10230;SDS011;62604;49.432;8.680;2024-02-16T13:45:49;3.53;;;2.50;;
10230;SDS011;62604;49.432;8.680;2024-02-16T13:48:17;4.95;;;2.70;;
10230;SDS011;62604;49.432;8.680;2024-02-16T13:50:45;2.75;;;2.30;;
10230;SDS011;62604;49.432;8.680;2024-02-16T13:53:13;3.85;;;2.85;;
10230;SDS011;62604;49.432;8.680;2024-02-16T13:55:40;3.80;;;2.28;;
10230;SDS011;62604;49.432;8.680;2024-02-16T13:58:10;2.28;;;1.95;;
10230;SDS011;62604;49.432;8.680;2024-02-16T14:00:37;3.28;;;2.33;;
10230;SDS011;62604;49.432;8.680;2024-02-16T14:03:04;4.55;;;2.40;;
10230;SDS011;62604;49.432;8.680;2024-02-16T14:05:33;3.20;;;2.35;;
10230;SDS011;62604;49.432;8.680;2024-02-16T14:08:02;4.35;;;2.40;;
10230;SDS011;62604;49.432;8.680;2024-02-16T14:10:31;2.67;;;2.17;;
10230;SDS011;62604;49.432;8.680;2024-02-16T14:12:58;3.08;;;2.10;;
10230;SDS011;62604;49.432;8.680;2024-02-16T14:15:26;2.70;;;2.40;;
10230;SDS011;62604;49.432;8.680;2024-02-16T14:17:53;5.65;;;2.00;;
10230;SDS011;62604;49.432;8.680;2024-02-16T14:20:20;3.97;;;3.53;;
10230;SDS011;62604;49.432;8.680;2024-02-16T14:22:48;3.53;;;2.63;;
10230;SDS011;62604;49.432;8.680;2024-02-16T14:25:15;5.10;;;2.42;;
10230;SDS011;62604;49.432;8.680;2024-02-16T14:27:43;2.83;;;2.45;;
10230;SDS011;62604;49.432;8.680;2024-02-16T14:30:11;2.42;;;2.22;;
10230;SDS011;62604;49.432;8.680;2024-02-16T14:32:40;5.03;;;2.50;;
10230;SDS011;62604;49.432;8.680;2024-02-16T14:35:07;4.75;;;3.00;;
10230;SDS011;62604;49.432;8.680;2024-02-16T14:37:35;8.20;;;2.17;;
10230;SDS011;62604;49.432;8.680;2024-02-16T14:40:04;2.60;;;2.10;;
10230;SDS011;62604;49.432;8.680;2024-02-16T14:42:35;4.00;;;2.22;;
10230;SDS011;62604;49.432;8.680;2024-02-16T14:45:03;3.92;;;2.20;;
10230;SDS011;62604;49.432;8.680;2024-02-16T14:47:34;4.47;;;1.92;;
10230;SDS011;62604;49.432;8.680;2024-02-16T14:50:02;2.63;;;2.08;;
10230;SDS011;62604;49.432;8.680;2024-02-16T14:52:32;3.50;;;2.33;;
10230;SDS011;62604;49.432;8.680;2024-02-16T14:55:00;3.63;;;2.17;;